Time;durP1;ratioP1;P1;durP2;ratioP2;P2;SDS_P1;SDS_P2;PMS_P1;PMS_P2;Temp;Humidity;BMP_temperature;BMP_pressure;BME280_temperature;BME280_humidity;BME280_pressure;Samples;Min_cycle;Max_cycle;Signal;HPM_P1;HPM_P2
2021/06/18 00:00:58;;;;;;;8.68;7.37;;;;;;;16.66;63.46;101723.14;1762832;80;21600;-83
2021/06/18 00:03:25;;;;;;;13.43;7.42;;;;;;;16.64;63.58;101724.00;1762973;80;21436;-83
2021/06/18 00:05:55;;;;;;;17.50;8.15;;;;;;;16.60;63.72;101724.38;1778243;80;21729;-83
2021/06/18 00:08:20;;;;;;;12.93;8.65;;;;;;;16.58;63.76;101731.88;1793411;78;21046;-83
2021/06/18 00:10:52;;;;;;;18.82;11.00;;;;;;;16.56;63.88;101733.62;1794364;78;21105;-83
2021/06/18 00:13:19;;;;;;;24.23;15.32;;;;;;;16.50;64.01;101723.34;1794436;80;21317;-83
2021/06/18 00:15:46;;;;;;;14.53;9.45;;;;;;;16.47;64.13;101719.74;1794368;79;21042;-83
2021/06/18 00:18:14;;;;;;;29.52;20.40;;;;;;;16.44;64.17;101726.33;1794341;78;21731;-83
2021/06/18 00:20:45;;;;;;;20.82;14.93;;;;;;;16.39;64.34;101720.95;1794291;78;21045;-83
2021/06/18 00:23:13;;;;;;;22.22;15.13;;;;;;;16.35;64.45;101727.09;1794440;78;21046;-83
2021/06/18 00:25:43;;;;;;;25.48;18.20;;;;;;;16.31;64.62;101725.22;1793871;79;21062;-83
2021/06/18 00:28:13;;;;;;;32.65;15.00;;;;;;;16.28;64.76;101723.86;1793160;78;21221;-83
2021/06/18 00:30:43;;;;;;;41.90;12.15;;;;;;;16.25;64.94;101727.78;1788146;78;22615;-83
2021/06/18 00:33:09;;;;;;;16.70;8.15;;;;;;;16.19;65.07;101728.56;1788314;79;21058;-83
2021/06/18 00:35:36;;;;;;;14.43;7.70;;;;;;;16.15;65.14;101731.16;1788202;78;21090;-83
2021/06/18 00:38:03;;;;;;;12.13;6.87;;;;;;;16.11;65.23;101730.20;1788335;78;21054;-83
2021/06/18 00:40:30;;;;;;;14.13;7.58;;;;;;;16.08;65.34;101719.07;1788529;80;21074;-83
2021/06/18 00:42:57;;;;;;;10.05;6.65;;;;;;;16.06;65.45;101719.92;1783814;78;21731;-83
2021/06/18 00:45:24;;;;;;;10.35;7.40;;;;;;;16.01;65.50;101711.89;1757092;80;21054;-83
2021/06/18 00:47:59;;;;;;;13.48;7.33;;;;;;;15.98;65.61;101708.28;1757465;80;21070;-83
2021/06/18 00:50:27;;;;;;;10.35;6.47;;;;;;;15.97;65.71;101710.45;1739388;81;21312;-83
2021/06/18 00:52:54;;;;;;;9.53;6.83;;;;;;;15.92;65.90;101708.63;1757077;81;21069;-83
2021/06/18 00:55:21;;;;;;;14.35;7.03;;;;;;;15.90;66.04;101700.18;1757160;81;21152;-83
2021/06/18 00:57:48;;;;;;;13.88;7.12;;;;;;;15.88;66.05;101711.20;1786262;80;21165;-84
2021/06/18 01:00:16;;;;;;;9.50;6.58;;;;;;;15.82;66.19;101711.98;1788315;79;21011;-83
2021/06/18 01:02:42;;;;;;;8.75;6.75;;;;;;;15.81;66.27;101719.48;1788470;80;21075;-84
2021/06/18 01:05:13;;;;;;;8.53;6.30;;;;;;;15.76;66.37;101709.19;1788445;79;21556;-84
2021/06/18 01:08:03;;;;;;;8.48;6.42;;;;;;;15.73;66.46;101718.00;1788518;78;21688;-83
2021/06/18 01:10:50;;;;;;;12.90;6.80;;;;;;;15.69;66.53;101717.86;1788507;79;21051;-83
2021/06/18 01:13:28;;;;;;;9.78;6.10;;;;;;;15.66;66.60;101720.04;1788560;79;21092;-82
2021/06/18 01:16:24;;;;;;;15.32;7.20;;;;;;;15.63;66.73;101710.67;1788260;79;21066;-82
2021/06/18 01:19:05;;;;;;;16.15;7.55;;;;;;;15.60;66.84;101704.00;1786408;78;21109;-82
2021/06/18 01:21:35;;;;;;;10.60;7.30;;;;;;;15.59;66.98;101707.51;1788362;80;21867;-82
2021/06/18 01:24:59;;;;;;;12.75;8.18;;;;;;;15.57;66.98;101707.03;1788295;78;21046;-82
2021/06/18 01:27:37;;;;;;;12.35;7.20;;;;;;;15.53;67.06;101704.74;1788037;79;21121;-83
2021/06/18 01:30:14;;;;;;;14.93;6.85;;;;;;;15.51;67.20;101714.44;1787863;80;21042;-82
2021/06/18 01:33:00;;;;;;;12.33;6.47;;;;;;;15.47;67.27;101716.13;1788037;80;21050;-82
2021/06/18 01:35:35;;;;;;;11.38;6.78;;;;;;;15.44;67.40;101716.05;1787594;79;21844;-82
2021/06/18 01:38:02;;;;;;;10.03;6.00;;;;;;;15.41;67.47;101710.70;1787727;79;21499;-83
2021/06/18 01:40:29;;;;;;;10.13;6.17;;;;;;;15.38;67.54;101709.75;1788477;79;21050;-82
2021/06/18 01:42:57;;;;;;;10.18;6.22;;;;;;;15.36;67.67;101716.34;1788219;79;21074;-83
2021/06/18 01:45:29;;;;;;;11.10;6.40;;;;;;;15.32;67.75;101714.05;1788369;79;21503;-83
2021/06/18 01:47:56;;;;;;;10.88;6.87;;;;;;;15.33;67.91;101718.92;1768460;78;21859;-82
2021/06/18 01:50:25;;;;;;;10.60;7.05;;;;;;;15.31;67.90;101723.30;1788355;79;21034;-82
2021/06/18 01:53:06;;;;;;;7.55;6.47;;;;;;;15.29;68.11;101732.98;1788383;79;21567;-82
2021/06/18 01:55:33;;;;;;;10.18;7.33;;;;;;;15.27;68.21;101726.31;1784004;79;21102;-82
2021/06/18 01:58:01;;;;;;;11.40;6.62;;;;;;;15.25;68.30;101738.66;1788363;79;21034;-82
2021/06/18 02:00:29;;;;;;;9.75;6.53;;;;;;;15.25;68.43;101738.66;1788170;78;21749;-82
2021/06/18 02:02:58;;;;;;;13.13;7.45;;;;;;;15.24;68.43;101728.00;1787983;79;21573;-82
2021/06/18 02:05:24;;;;;;;12.65;7.15;;;;;;;15.23;68.50;101728.88;1788494;80;21514;-82
2021/06/18 02:07:52;;;;;;;9.10;6.80;;;;;;;15.23;68.57;101729.77;1788578;79;21050;-83
2021/06/18 02:10:19;;;;;;;10.15;6.87;;;;;;;15.23;68.59;101728.44;1788499;79;21051;-82
2021/06/18 02:12:47;;;;;;;12.25;7.28;;;;;;;15.23;68.67;101724.91;1788385;78;21774;-82
2021/06/18 02:15:17;;;;;;;12.93;7.70;;;;;;;15.25;68.70;101725.39;1788143;78;21094;-82
2021/06/18 02:17:43;;;;;;;11.35;7.70;;;;;;;15.23;68.59;101715.62;1788268;80;21050;-82
2021/06/18 02:20:11;;;;;;;9.05;7.33;;;;;;;15.24;68.64;101718.72;1788325;79;21043;-82
2021/06/18 02:22:39;;;;;;;14.45;7.15;;;;;;;15.25;68.70;101718.75;1788180;80;21584;-82
2021/06/18 02:25:07;;;;;;;10.25;7.15;;;;;;;15.27;68.73;101723.66;1788292;80;21752;-82
2021/06/18 02:27:34;;;;;;;14.98;8.03;;;;;;;15.29;68.74;101724.59;1788270;79;21494;-83
2021/06/18 02:30:05;;;;;;;10.88;7.28;;;;;;;15.32;68.74;101720.69;1791996;79;21014;-83
2021/06/18 02:32:32;;;;;;;11.80;7.37;;;;;;;15.32;68.78;101729.97;1794200;78;21094;-82
2021/06/18 02:34:59;;;;;;;11.48;6.60;;;;;;;15.34;68.83;101722.94;1793774;79;21118;-82
2021/06/18 02:37:26;;;;;;;10.90;6.45;;;;;;;15.38;68.78;101726.98;1793911;78;21783;-82
2021/06/18 02:39:53;;;;;;;10.30;6.20;;;;;;;15.40;68.89;101715.97;1792416;80;21440;-82
2021/06/18 02:42:19;;;;;;;8.35;5.72;;;;;;;15.45;68.85;101712.55;1792529;80;20991;-82
2021/06/18 02:44:46;;;;;;;15.48;6.92;;;;;;;15.51;68.80;101709.13;1792535;79;21051;-82
2021/06/18 02:47:40;;;;;;;14.55;7.42;;;;;;;15.58;68.77;101712.78;1792380;79;21070;-82
2021/06/18 02:50:37;;;;;;;12.05;6.55;;;;;;;15.64;68.75;101715.58;1792155;79;27610;-82
2021/06/18 02:53:15;;;;;;;11.08;7.25;;;;;;;15.71;68.66;101711.74;1792375;79;21058;-82
2021/06/18 02:55:51;;;;;;;11.43;7.25;;;;;;;15.76;68.53;101710.52;1774210;80;21037;-81
2021/06/18 02:58:23;;;;;;;15.85;8.98;;;;;;;15.83;68.55;101707.56;1792545;78;20984;-81
2021/06/18 03:00:51;;;;;;;18.30;10.90;;;;;;;15.92;68.57;101705.08;1774362;80;21102;-81
2021/06/18 03:03:25;;;;;;;17.35;9.50;;;;;;;16.03;68.54;101706.58;1792252;79;21808;-82
2021/06/18 03:05:53;;;;;;;15.80;9.13;;;;;;;16.12;68.54;101710.73;1792304;79;21499;-82
2021/06/18 03:08:22;;;;;;;13.48;10.40;;;;;;;16.22;68.43;101717.13;1773322;80;21520;-83
2021/06/18 03:10:51;;;;;;;13.05;9.33;;;;;;;16.31;68.38;101718.58;1792256;79;21055;-83
2021/06/18 03:13:25;;;;;;;12.90;8.80;;;;;;;16.41;68.30;101719.20;1792426;80;21094;-83
2021/06/18 03:15:52;;;;;;;11.75;7.50;;;;;;;16.56;68.27;101716.34;1792344;79;21766;-82
2021/06/18 03:18:27;;;;;;;8.65;6.53;;;;;;;16.68;68.01;101716.08;1792198;78;21070;-83
2021/06/18 03:20:57;;;;;;;16.12;6.95;;;;;;;16.83;67.96;101725.20;1792091;79;21110;-83
2021/06/18 03:23:24;;;;;;;10.72;6.92;;;;;;;16.99;67.72;101721.90;1792853;79;21588;-83
2021/06/18 03:25:52;;;;;;;12.00;7.65;;;;;;;17.14;67.63;101719.00;1774070;80;36485;-82
2021/06/18 03:28:19;;;;;;;11.43;7.17;;;;;;;17.38;67.56;101725.05;1792291;79;21779;-82
2021/06/18 03:30:47;;;;;;;12.93;7.75;;;;;;;17.84;68.33;101727.84;1767692;80;21691;-83
2021/06/18 03:33:14;;;;;;;9.85;7.58;;;;;;;19.26;69.21;101730.31;1782803;78;21565;-83
2021/06/18 03:35:44;;;;;;;15.38;8.00;;;;;;;20.37;66.84;101731.50;1726218;80;21541;-82
2021/06/18 03:38:10;;;;;;;16.25;8.50;;;;;;;21.51;66.07;101726.38;1768372;78;21067;-82
2021/06/18 03:40:38;;;;;;;13.62;8.18;;;;;;;21.89;62.85;101734.69;1774537;78;21807;-82
2021/06/18 03:43:06;;;;;;;19.48;8.65;;;;;;;21.61;61.56;101728.14;1757076;80;20995;-82
2021/06/18 03:45:33;;;;;;;14.80;8.40;;;;;;;21.41;61.03;101736.68;1760500;78;21074;-82
2021/06/18 03:48:09;;;;;;;15.08;7.15;;;;;;;21.42;61.07;101736.68;1756960;80;21101;-82
2021/06/18 03:50:36;;;;;;;17.27;7.35;;;;;;;22.39;62.22;101737.49;1764438;78;21616;-82
2021/06/18 03:53:03;;;;;;;11.28;6.08;;;;;;;24.10;61.55;101739.56;1757184;81;21728;-82
2021/06/18 03:55:30;;;;;;;9.50;5.70;;;;;;;25.90;59.75;101732.54;1767213;78;21062;-83
2021/06/18 03:57:56;;;;;;;8.13;5.42;;;;;;;27.55;57.48;101725.06;1775499;78;21651;-83
2021/06/18 04:00:23;;;;;;;8.50;5.95;;;;;;;28.94;55.09;101724.09;1775140;78;21291;-83
2021/06/18 04:02:50;;;;;;;9.18;6.25;;;;;;;30.22;52.47;101728.20;1778785;78;21050;-83
2021/06/18 04:05:19;;;;;;;10.63;5.72;;;;;;;31.10;50.35;101728.52;1776157;78;21719;-83
2021/06/18 04:07:48;;;;;;;8.68;5.40;;;;;;;31.91;48.81;101724.25;1788058;79;21051;-83
2021/06/18 04:10:28;;;;;;;10.25;5.20;;;;;;;32.85;47.34;101721.77;1787636;78;21618;-84
2021/06/18 04:12:58;;;;;;;8.80;5.25;;;;;;;33.75;45.62;101720.97;1788292;78;21062;-88
2021/06/18 04:15:27;;;;;;;11.18;5.40;;;;;;;34.59;43.83;101721.46;1788166;80;21074;-83
2021/06/18 04:17:54;;;;;;;6.92;4.72;;;;;;;35.33;42.30;101720.16;1787908;78;22431;-86
2021/06/18 04:23:11;;;;;;;7.60;4.55;;;;;;;36.43;39.28;101724.27;1690261;81;21067;-84
2021/06/18 04:25:38;;;;;;;9.90;4.87;;;;;;;36.95;37.90;101722.51;1786271;78;21019;-83
2021/06/18 04:28:06;;;;;;;6.67;4.35;;;;;;;37.63;36.75;101723.14;1788528;78;21015;-85
2021/06/18 04:30:33;;;;;;;6.97;4.67;;;;;;;38.15;35.54;101725.23;1791853;78;21753;-83
2021/06/18 04:33:00;;;;;;;9.10;5.15;;;;;;;38.53;34.52;101727.73;1793588;80;21525;-83
2021/06/18 04:35:27;;;;;;;7.85;4.90;;;;;;;39.12;33.68;101724.52;1794113;80;21089;-82
2021/06/18 04:37:53;;;;;;;7.25;4.50;;;;;;;39.81;32.59;101725.73;1794138;79;21027;-83
2021/06/18 04:40:20;;;;;;;6.45;4.30;;;;;;;40.13;31.27;101720.30;1794018;78;21070;-85
2021/06/18 04:42:47;;;;;;;6.12;4.22;;;;;;;40.47;30.51;101719.28;1793831;79;21741;-85
2021/06/18 04:45:16;;;;;;;9.88;4.40;;;;;;;40.84;29.71;101719.70;1793777;78;21042;-85
2021/06/18 04:47:42;;;;;;;11.20;4.55;;;;;;;41.22;29.07;101718.69;1793757;80;21069;-82
2021/06/18 04:50:10;;;;;;;7.85;4.12;;;;;;;41.74;28.62;101713.42;1793907;79;21030;-82
2021/06/18 04:52:41;;;;;;;8.13;4.22;;;;;;;42.16;27.59;101710.98;1793958;80;21667;-85
2021/06/18 04:55:12;;;;;;;8.08;4.00;;;;;;;42.65;26.78;101715.97;1793851;78;22437;-85
2021/06/18 04:57:37;;;;;;;9.03;4.65;;;;;;;42.95;26.36;101717.30;1792152;78;21074;-82
2021/06/18 05:00:05;;;;;;;11.93;4.25;;;;;;;43.29;25.72;101715.73;1773186;80;21523;-83
2021/06/18 05:02:32;;;;;;;8.93;4.25;;;;;;;43.63;25.00;101712.86;1794617;78;21147;-80
2021/06/18 05:04:58;;;;;;;9.48;4.97;;;;;;;43.82;24.47;101705.81;1775390;80;21072;-81
2021/06/18 05:07:25;;;;;;;6.75;4.12;;;;;;;44.04;24.13;101705.87;1775702;79;21744;-81
2021/06/18 05:09:54;;;;;;;6.65;4.87;;;;;;;44.23;23.65;101702.08;1775350;79;21065;-81
2021/06/18 05:12:23;;;;;;;10.00;4.72;;;;;;;44.48;23.16;101700.02;1775221;79;20990;-80
2021/06/18 05:14:51;;;;;;;7.80;4.55;;;;;;;44.57;22.64;101708.80;1775716;79;21074;-80
2021/06/18 05:17:18;;;;;;;8.33;4.60;;;;;;;44.51;22.26;101706.66;1775611;79;21065;-81
2021/06/18 05:19:44;;;;;;;10.80;4.90;;;;;;;44.41;22.19;101713.66;1775635;79;21735;-81
2021/06/18 05:22:12;;;;;;;5.60;4.05;;;;;;;44.39;21.83;101710.18;1775751;80;21737;-82
2021/06/18 05:24:38;;;;;;;7.80;5.15;;;;;;;44.64;21.82;101710.77;1775812;79;21598;-82
2021/06/18 05:27:05;;;;;;;7.40;4.67;;;;;;;44.74;21.38;101715.34;1775662;80;21113;-82
2021/06/18 05:29:32;;;;;;;11.15;4.58;;;;;;;44.75;21.22;101711.52;1775688;80;21085;-82
2021/06/18 05:31:59;;;;;;;8.43;4.10;;;;;;;45.00;20.99;101712.58;1758675;81;21865;-82
2021/06/18 05:34:26;;;;;;;13.70;4.28;;;;;;;45.13;20.72;101712.14;1758989;81;21069;-82
2021/06/18 05:36:53;;;;;;;7.58;4.15;;;;;;;44.96;20.49;101708.41;1759226;80;21070;-83
2021/06/18 05:39:19;;;;;;;4.95;3.77;;;;;;;44.87;20.56;101710.22;1759161;81;20995;-82
2021/06/18 05:41:46;;;;;;;8.23;4.17;;;;;;;45.13;20.59;101707.97;1759210;81;21544;-81
2021/06/18 05:44:13;;;;;;;8.83;4.05;;;;;;;44.67;20.01;101710.94;1758986;81;21731;-81
2021/06/18 05:46:39;;;;;;;14.18;3.85;;;;;;;42.56;20.01;101715.48;1759462;80;21058;-81
2021/06/18 05:49:06;;;;;;;9.78;3.55;;;;;;;40.25;20.94;101710.09;1759429;81;21513;-81
2021/06/18 05:51:33;;;;;;;6.10;3.58;;;;;;;38.41;21.91;101721.84;1759512;80;21556;-81
2021/06/18 05:54:00;;;;;;;4.97;2.98;;;;;;;36.63;22.78;101707.80;1759630;81;21685;-81
2021/06/18 05:56:27;;;;;;;8.75;3.50;;;;;;;35.04;23.96;101711.43;1759487;81;21750;-81
2021/06/18 05:58:54;;;;;;;7.78;3.70;;;;;;;33.92;24.97;101704.97;1759413;81;21598;-81
2021/06/18 06:01:20;;;;;;;9.95;3.77;;;;;;;32.80;25.82;101704.77;1759682;81;21529;-81
2021/06/18 06:03:47;;;;;;;5.50;3.90;;;;;;;31.93;26.87;101705.53;1759444;80;21077;-83
2021/06/18 06:06:18;;;;;;;8.88;3.72;;;;;;;31.11;27.79;101703.07;1758286;81;21073;-81
2021/06/18 06:08:44;;;;;;;13.80;4.12;;;;;;;30.34;28.92;101711.89;1759584;81;21834;-81
2021/06/18 06:11:13;;;;;;;9.68;4.03;;;;;;;29.66;29.75;101705.11;1759886;81;21062;-81
2021/06/18 06:13:39;;;;;;;6.40;3.67;;;;;;;29.22;30.56;101706.84;1759452;80;21101;-81
2021/06/18 06:16:06;;;;;;;5.58;3.70;;;;;;;28.78;31.27;101699.87;1759566;81;21105;-82
2021/06/18 06:18:33;;;;;;;4.90;4.20;;;;;;;28.38;31.96;101697.16;1759723;81;21049;-82
2021/06/18 06:20:59;;;;;;;7.90;4.22;;;;;;;28.10;32.68;101700.83;1759448;81;21746;-81
2021/06/18 06:23:26;;;;;;;7.10;3.90;;;;;;;27.77;33.15;101704.13;1759617;81;21105;-81
2021/06/18 06:25:53;;;;;;;4.53;3.47;;;;;;;27.50;33.67;101703.58;1759656;81;21089;-82
2021/06/18 06:28:20;;;;;;;8.55;4.05;;;;;;;27.29;34.17;101698.80;1759026;81;21018;-81
2021/06/18 06:30:47;;;;;;;6.20;3.95;;;;;;;27.10;34.67;101697.98;1759173;81;21556;-81
2021/06/18 06:33:14;;;;;;;11.28;3.80;;;;;;;26.97;35.16;101707.34;1759438;81;21884;-81
2021/06/18 06:35:41;;;;;;;8.25;3.55;;;;;;;26.88;35.40;101708.52;1759437;81;21065;-81
2021/06/18 06:38:08;;;;;;;7.42;3.45;;;;;;;26.74;35.57;101708.00;1759646;81;21313;-81
2021/06/18 06:40:35;;;;;;;5.47;3.62;;;;;;;26.63;36.01;101704.70;1747562;82;20986;-82
2021/06/18 06:43:01;;;;;;;6.35;3.27;;;;;;;26.52;36.28;101705.86;1745977;81;21597;-81
2021/06/18 06:45:28;;;;;;;8.45;3.80;;;;;;;26.48;36.67;101702.78;1759545;81;22186;-81
2021/06/18 06:47:55;;;;;;;5.53;4.00;;;;;;;26.43;36.97;101700.70;1759408;81;21057;-81
2021/06/18 06:50:21;;;;;;;7.30;5.50;;;;;;;26.33;37.04;101700.49;1759717;81;20975;-82
2021/06/18 06:52:48;;;;;;;4.62;3.65;;;;;;;26.23;37.36;101702.55;1759760;81;21116;-81
2021/06/18 06:55:17;;;;;;;5.45;3.45;;;;;;;26.21;37.84;101698.13;1759698;81;21123;-81
2021/06/18 06:57:44;;;;;;;9.38;4.10;;;;;;;26.20;38.26;101689.12;1759376;80;21774;-81
2021/06/18 07:00:12;;;;;;;9.98;4.10;;;;;;;26.17;38.26;101689.22;1759493;81;21101;-81
2021/06/18 07:02:38;;;;;;;5.55;4.42;;;;;;;26.16;38.55;101686.08;1759652;81;21579;-81
2021/06/18 07:05:06;;;;;;;5.67;3.12;;;;;;;26.09;38.51;101685.80;1759610;81;21057;-81
2021/06/18 07:07:34;;;;;;;4.80;4.30;;;;;;;26.06;38.62;101693.52;1759728;81;21536;-81
2021/06/18 07:10:00;;;;;;;5.95;3.72;;;;;;;26.06;39.02;101694.87;1759539;81;21796;-81
2021/06/18 07:12:27;;;;;;;8.05;3.55;;;;;;;26.09;39.23;101687.15;1759673;81;21627;-81
2021/06/18 07:14:56;;;;;;;6.05;3.90;;;;;;;26.14;39.21;101694.20;1759917;80;21025;-81
2021/06/18 07:17:23;;;;;;;10.82;3.42;;;;;;;26.18;39.31;101692.32;1759729;80;21043;-81
2021/06/18 07:19:50;;;;;;;5.10;3.27;;;;;;;26.25;39.52;101696.64;1759768;81;21023;-81
2021/06/18 07:22:21;;;;;;;5.85;3.75;;;;;;;26.31;39.66;101700.52;1759763;81;21713;-80
2021/06/18 07:24:48;;;;;;;6.10;4.20;;;;;;;26.34;39.71;101686.09;1759924;80;21070;-81
2021/06/18 07:27:15;;;;;;;12.50;3.42;;;;;;;26.41;39.58;101688.14;1759685;81;21442;-81
2021/06/18 07:29:43;;;;;;;4.85;3.83;;;;;;;26.42;39.65;101690.81;1759764;81;21537;-81
2021/06/18 07:32:11;;;;;;;8.75;5.30;;;;;;;26.48;39.90;101692.45;1759500;81;21050;-81
2021/06/18 07:34:38;;;;;;;8.18;3.40;;;;;;;26.54;39.98;101692.29;1759174;81;22664;-81
2021/06/18 07:37:05;;;;;;;9.58;4.50;;;;;;;26.58;40.16;101689.48;1759598;81;21045;-81
2021/06/18 07:39:32;;;;;;;5.70;4.20;;;;;;;26.63;40.17;101685.33;1759678;81;21496;-81
2021/06/18 07:41:59;;;;;;;5.15;4.03;;;;;;;26.67;40.32;101687.48;1747548;82;21046;-81
2021/06/18 07:44:25;;;;;;;6.55;4.00;;;;;;;26.70;40.12;101682.01;1773369;80;21048;-81
2021/06/18 07:46:52;;;;;;;6.58;4.40;;;;;;;26.74;40.22;101675.11;1773308;80;21731;-81
2021/06/18 07:49:19;;;;;;;8.18;4.20;;;;;;;26.72;40.09;101671.57;1759881;81;21489;-81
2021/06/18 07:51:46;;;;;;;14.35;4.75;;;;;;;26.72;40.43;101672.05;1759738;81;21047;-81
2021/06/18 07:54:15;;;;;;;10.78;4.22;;;;;;;26.75;40.56;101667.92;1759965;81;21057;-81
2021/06/18 07:56:44;;;;;;;5.35;3.75;;;;;;;26.77;40.58;101664.71;1759824;81;21061;-81
2021/06/18 07:59:10;;;;;;;10.10;4.45;;;;;;;26.78;40.62;101662.88;1759751;81;22547;-81
2021/06/18 08:01:37;;;;;;;10.03;6.15;;;;;;;26.80;40.90;101655.62;1734070;81;21061;-81
2021/06/18 08:04:07;;;;;;;8.00;5.20;;;;;;;26.83;41.00;101660.95;1759920;80;21089;-81
2021/06/18 08:06:35;;;;;;;9.73;4.75;;;;;;;26.87;41.02;101659.45;1759851;81;21163;-81
2021/06/18 08:09:06;;;;;;;8.17;4.60;;;;;;;26.92;41.10;101656.16;1742378;81;21111;-81
2021/06/18 08:11:36;;;;;;;9.80;6.95;;;;;;;26.93;40.87;101657.95;1773750;80;21810;-81
2021/06/18 08:14:02;;;;;;;7.83;4.50;;;;;;;26.93;41.17;101659.30;1759491;81;21046;-81
2021/06/18 08:16:29;;;;;;;5.87;4.33;;;;;;;26.96;41.34;101656.48;1759880;81;21253;-81
2021/06/18 08:18:56;;;;;;;7.17;4.65;;;;;;;27.03;41.43;101658.56;1759982;81;21054;-81
2021/06/18 08:21:23;;;;;;;4.80;3.80;;;;;;;27.09;41.58;101652.97;1760214;81;21069;-81
2021/06/18 08:23:50;;;;;;;5.75;4.40;;;;;;;27.15;41.65;101654.59;1760159;80;21754;-82
2021/06/18 08:26:17;;;;;;;6.45;4.70;;;;;;;27.18;41.37;101656.31;1759893;81;21057;-81
2021/06/18 08:28:43;;;;;;;6.30;4.55;;;;;;;27.19;41.43;101653.56;1733946;81;21061;-81
2021/06/18 08:31:10;;;;;;;5.08;4.22;;;;;;;27.22;41.58;101651.27;1756717;81;21116;-81
2021/06/18 08:33:39;;;;;;;6.20;4.50;;;;;;;27.25;41.59;101649.35;1750755;81;21105;-81
2021/06/18 08:36:06;;;;;;;7.92;4.62;;;;;;;27.29;41.67;101656.91;1751034;81;22639;-82
2021/06/18 08:38:34;;;;;;;4.80;4.33;;;;;;;27.32;41.61;101648.23;1750962;80;21521;-81
2021/06/18 08:41:03;;;;;;;6.87;4.47;;;;;;;27.35;41.52;101647.28;1750961;81;21070;-81
2021/06/18 08:43:30;;;;;;;9.05;5.03;;;;;;;27.39;41.62;101650.78;1751205;81;21540;-81
2021/06/18 08:45:58;;;;;;;9.05;4.67;;;;;;;27.41;41.58;101650.27;1751018;81;21035;-81
2021/06/18 08:48:25;;;;;;;6.22;4.62;;;;;;;27.43;41.90;101641.62;1750875;81;21861;-81
2021/06/18 08:50:52;;;;;;;6.87;4.58;;;;;;;27.51;42.04;101640.91;1751033;81;21203;-81
2021/06/18 08:53:19;;;;;;;7.20;4.50;;;;;;;27.59;41.87;101642.02;1751138;81;21144;-81
2021/06/18 08:55:46;;;;;;;9.18;6.30;;;;;;;27.58;41.59;101637.56;1751256;81;21122;-81
2021/06/18 08:58:13;;;;;;;5.55;5.03;;;;;;;27.60;41.79;101635.21;1750997;81;21125;-81
2021/06/18 09:00:39;;;;;;;9.20;4.70;;;;;;;27.65;41.88;101626.97;1751085;81;21816;-81
2021/06/18 09:03:43;;;;;;;13.38;4.58;;;;;;;27.71;42.06;101628.11;1751078;81;21077;-81
2021/06/18 09:06:28;;;;;;;6.30;4.45;;;;;;;27.77;41.83;101631.08;1613270;87;21115;-81
2021/06/18 09:09:17;;;;;;;7.12;6.35;;;;;;;27.73;41.60;101624.88;1613032;88;21173;-81
2021/06/18 09:11:55;;;;;;;13.90;6.17;;;;;;;27.76;41.65;101623.89;1613064;88;21675;-81
2021/06/18 09:14:37;;;;;;;12.20;5.30;;;;;;;27.80;41.94;101619.70;1613057;88;21789;-81
2021/06/18 09:17:19;;;;;;;7.33;5.58;;;;;;;27.87;41.95;101619.91;1612805;87;21119;-81
2021/06/18 09:20:03;;;;;;;8.30;4.83;;;;;;;27.97;42.15;101620.52;1613232;88;21149;-81
2021/06/18 09:22:38;;;;;;;13.38;6.17;;;;;;;28.06;41.77;101618.84;1612587;88;21169;-81
2021/06/18 09:25:09;;;;;;;6.20;4.80;;;;;;;28.13;41.72;101619.50;1613009;88;21604;-81
2021/06/18 09:27:42;;;;;;;8.15;4.97;;;;;;;28.18;41.57;101616.17;1613074;88;21759;-81
2021/06/18 09:30:30;;;;;;;8.00;6.37;;;;;;;28.24;41.29;101616.43;1613105;87;21267;-81
2021/06/18 09:33:08;;;;;;;8.33;4.85;;;;;;;28.27;41.10;101617.69;1617461;85;21153;-81
2021/06/18 09:35:34;;;;;;;6.35;4.75;;;;;;;28.31;40.99;101615.28;1617699;88;21097;-81
2021/06/18 09:38:04;;;;;;;25.95;23.22;;;;;;;28.34;40.81;101617.86;1617951;87;21181;-81
2021/06/18 09:40:31;;;;;;;9.05;6.50;;;;;;;28.39;40.68;101616.36;1692088;82;21838;-81
2021/06/18 09:43:11;;;;;;;9.18;4.87;;;;;;;28.42;40.63;101614.42;1732086;81;21585;-81
2021/06/18 09:45:38;;;;;;;6.97;4.53;;;;;;;28.47;40.48;101615.59;1724337;83;21068;-81
2021/06/18 09:48:20;;;;;;;6.22;4.55;;;;;;;28.51;40.45;101609.13;1724092;83;21072;-81
2021/06/18 09:50:52;;;;;;;13.08;7.33;;;;;;;28.58;40.13;101619.31;1723901;82;21064;-81
2021/06/18 09:53:26;;;;;;;5.83;5.10;;;;;;;28.63;40.01;101610.08;1731548;81;21867;-81
2021/06/18 09:56:08;;;;;;;9.95;5.80;;;;;;;28.69;39.65;101616.61;1732168;81;21527;-81
2021/06/18 09:58:37;;;;;;;7.53;4.70;;;;;;;28.76;39.70;101617.77;1724218;83;21076;-81
2021/06/18 10:01:23;;;;;;;6.85;5.20;;;;;;;28.82;39.17;101614.33;1732165;82;21585;-81
2021/06/18 10:04:07;;;;;;;5.85;4.55;;;;;;;28.83;38.94;101613.41;1724108;83;21100;-81
2021/06/18 10:06:38;;;;;;;7.67;4.72;;;;;;;28.86;38.75;101605.62;1732395;81;21755;-81
2021/06/18 10:09:07;;;;;;;5.47;4.65;;;;;;;28.91;38.81;101609.05;1732174;81;21048;-81
2021/06/18 10:11:35;;;;;;;9.43;7.37;;;;;;;28.96;38.53;101603.44;1732257;81;21514;-81
2021/06/18 10:14:02;;;;;;;5.90;4.92;;;;;;;29.01;38.72;101605.50;1724229;81;21037;-81
2021/06/18 10:16:29;;;;;;;6.10;5.00;;;;;;;29.07;38.42;101614.74;1724332;81;21593;-81
2021/06/18 10:19:00;;;;;;;11.00;6.58;;;;;;;29.07;37.79;101606.16;1724261;82;22320;-81
2021/06/18 10:21:28;;;;;;;7.37;4.55;;;;;;;29.04;37.52;101606.27;1724149;82;21073;-81
2021/06/18 10:23:59;;;;;;;8.05;5.40;;;;;;;29.03;37.13;101608.55;1724212;83;21253;-81
2021/06/18 10:26:27;;;;;;;8.65;5.08;;;;;;;29.02;37.00;101597.80;1723945;83;21041;-81
2021/06/18 10:28:56;;;;;;;6.58;5.28;;;;;;;29.01;36.95;101599.60;1732417;82;21075;-81
2021/06/18 10:31:31;;;;;;;7.70;4.75;;;;;;;29.05;36.75;101596.30;1730512;79;21791;-81
2021/06/18 10:34:16;;;;;;;7.08;4.67;;;;;;;29.08;36.68;101596.20;1767101;81;21594;-81
2021/06/18 10:36:43;;;;;;;7.75;5.08;;;;;;;29.14;36.54;101604.59;1767813;81;21065;-81
2021/06/18 10:39:16;;;;;;;6.40;5.75;;;;;;;29.16;36.27;101604.06;1767484;81;21113;-80
2021/06/18 10:41:54;;;;;;;7.27;5.07;;;;;;;29.17;36.20;101601.30;1768175;81;21069;-81
2021/06/18 10:44:44;;;;;;;5.25;4.72;;;;;;;29.19;36.22;101606.18;1767367;81;21773;-81
2021/06/18 10:47:34;;;;;;;9.48;4.47;;;;;;;29.23;35.89;101600.16;1767752;79;21046;-81
2021/06/18 10:50:01;;;;;;;5.22;4.37;;;;;;;29.21;35.39;101597.99;1767799;81;21575;-80
2021/06/18 10:52:37;;;;;;;6.78;4.10;;;;;;;29.21;35.09;101599.34;1767838;80;21092;-80
2021/06/18 10:55:05;;;;;;;7.35;6.58;;;;;;;29.18;34.77;101600.33;1767771;79;21600;-81
2021/06/18 10:57:32;;;;;;;6.75;4.58;;;;;;;29.15;34.89;101597.77;1767451;81;21777;-81
2021/06/18 11:00:12;;;;;;;5.50;4.03;;;;;;;29.17;34.94;101605.80;1767486;81;21551;-80
2021/06/18 11:02:40;;;;;;;7.58;4.33;;;;;;;29.15;34.62;101604.54;1766912;81;21029;-80
2021/06/18 11:05:17;;;;;;;4.75;4.20;;;;;;;29.17;34.60;101594.96;1767784;81;21038;-80
2021/06/18 11:07:46;;;;;;;6.53;4.67;;;;;;;29.19;34.61;101599.88;1743478;81;21117;-80
2021/06/18 11:10:27;;;;;;;6.05;4.42;;;;;;;29.19;34.77;101611.60;1767628;81;21817;-80
2021/06/18 11:13:03;;;;;;;12.78;11.57;;;;;;;29.20;34.70;101605.70;1768075;81;21054;-80
2021/06/18 11:15:36;;;;;;;7.87;4.67;;;;;;;29.21;34.65;101603.41;1781600;80;21120;-80
2021/06/18 11:18:14;;;;;;;5.75;4.58;;;;;;;29.22;34.76;101600.61;1781283;79;21108;-80
2021/06/18 11:20:49;;;;;;;12.15;6.78;;;;;;;29.25;34.35;101596.44;1781247;79;21108;-81
2021/06/18 11:23:29;;;;;;;8.13;4.30;;;;;;;29.30;34.43;101589.49;1781713;79;22429;-81
2021/06/18 11:26:10;;;;;;;7.78;3.92;;;;;;;29.36;34.57;101593.78;1765472;81;21058;-81
2021/06/18 11:28:46;;;;;;;6.22;4.10;;;;;;;29.39;34.86;101596.35;1765427;80;21080;-81
2021/06/18 11:31:23;;;;;;;7.17;3.77;;;;;;;29.42;34.79;101589.45;1742571;81;21057;-81
2021/06/18 11:34:00;;;;;;;5.10;3.95;;;;;;;29.43;35.03;101585.78;1754524;81;21062;-81
2021/06/18 11:36:44;;;;;;;4.95;3.85;;;;;;;29.47;34.85;101586.09;1756225;81;21782;-81
2021/06/18 11:39:15;;;;;;;5.37;4.70;;;;;;;29.42;34.72;101572.70;1755647;81;21567;-81